Time;durP1;ratioP1;P1;durP2;ratioP2;P2;SDS_P1;SDS_P2;PMS_P1;PMS_P2;Temp;Humidity;BMP_temperature;BMP_pressure;BME280_temperature;BME280_humidity;BME280_pressure;Samples;Min_cycle;Max_cycle;Signal;HPM_P1;HPM_P2
2022/05/30 00:02:31;;;;;;;7.33;3.50;;;;;;;12.91;65.40;98298.23;2291551;78;20921;-82
2022/05/30 00:05:32;;;;;;;5.25;3.70;;;;;;;12.67;66.29;98308.41;2291725;77;20883;-82
2022/05/30 00:08:32;;;;;;;6.12;3.85;;;;;;;12.47;67.42;98302.39;2291633;77;20937;-81
2022/05/30 00:11:33;;;;;;;3.77;3.25;;;;;;;12.24;68.62;98298.12;2291489;77;21282;-81
2022/05/30 00:14:33;;;;;;;3.67;3.12;;;;;;;12.04;69.63;98296.84;2291407;78;20898;-82
2022/05/30 00:17:33;;;;;;;5.42;2.95;;;;;;;11.94;70.01;98293.81;2291916;77;20914;-82
2022/05/30 00:20:34;;;;;;;4.00;3.15;;;;;;;11.83;70.69;98302.13;2292304;77;20910;-82
2022/05/30 00:23:34;;;;;;;5.78;3.30;;;;;;;13.43;81.88;98301.41;2292381;77;20879;-82
2022/05/30 00:26:35;;;;;;;5.85;3.10;;;;;;;16.28;74.62;98291.00;2296548;77;20914;-81
2022/05/30 00:29:35;;;;;;;5.95;3.33;;;;;;;16.05;64.49;98290.12;2305811;77;21313;-80
2022/05/30 00:32:35;;;;;;;3.92;2.90;;;;;;;14.87;63.51;98287.64;2305694;77;20948;-81
2022/05/30 00:35:36;;;;;;;3.80;3.05;;;;;;;14.01;64.84;98291.72;2306307;77;20902;-82
2022/05/30 00:38:36;;;;;;;4.58;3.15;;;;;;;13.69;73.29;98292.00;2306984;77;21304;-82
2022/05/30 00:41:37;;;;;;;4.85;3.05;;;;;;;16.11;74.28;98272.89;2306805;77;20937;-83
2022/05/30 00:44:37;;;;;;;4.00;2.95;;;;;;;17.60;64.33;98279.77;2305934;77;20901;-82
2022/05/30 00:47:38;;;;;;;5.25;2.72;;;;;;;16.40;61.33;98288.56;2305728;77;21360;-81
2022/05/30 00:50:38;;;;;;;4.20;2.67;;;;;;;15.14;62.28;98287.69;2305654;77;20921;-83
2022/05/30 00:53:40;;;;;;;3.92;2.75;;;;;;;14.33;63.43;98296.60;2305837;77;21064;-83
2022/05/30 00:56:39;;;;;;;4.40;3.17;;;;;;;13.66;64.80;98289.41;2307062;77;21301;-83
2022/05/30 00:59:39;;;;;;;5.60;2.83;;;;;;;15.11;75.18;98285.10;2307144;77;20914;-82
2022/05/30 01:02:42;;;;;;;3.40;2.90;;;;;;;19.36;63.58;98263.31;2306172;77;21001;-83
2022/05/30 01:09:02;;;;;;;8.03;2.80;;;;;;;20.39;59.19;98260.68;2306480;77;20942;-83
2022/05/30 01:12:02;;;;;;;3.92;2.75;;;;;;;21.35;56.30;98263.66;2306693;77;21352;-84
2022/05/30 01:15:02;;;;;;;4.47;2.72;;;;;;;21.60;53.71;98263.05;2306998;77;20952;-84
2022/05/30 01:18:03;;;;;;;5.75;2.95;;;;;;;21.47;52.30;98264.48;2306226;77;20922;-84
2022/05/30 01:21:03;;;;;;;3.30;2.30;;;;;;;20.52;50.31;98264.64;2305816;77;20953;-85
2022/05/30 01:24:04;;;;;;;6.17;2.30;;;;;;;19.81;52.66;98254.32;2306402;77;20953;-85
2022/05/30 01:27:04;;;;;;;3.50;2.37;;;;;;;19.65;53.78;98251.33;2299615;77;21321;-84
2022/05/30 01:30:04;;;;;;;3.85;2.55;;;;;;;19.90;54.98;98242.08;2292020;78;20902;-84
2022/05/30 01:33:05;;;;;;;4.65;2.50;;;;;;;20.75;53.52;98246.06;2292047;78;20966;-85
2022/05/30 01:36:05;;;;;;;3.67;2.30;;;;;;;20.21;51.69;98240.55;2292253;77;21298;-84
2022/05/30 01:39:06;;;;;;;3.30;2.42;;;;;;;20.24;52.08;98227.66;2292468;77;20906;-85
2022/05/30 01:42:06;;;;;;;2.37;2.00;;;;;;;20.33;52.15;98224.20;2292593;77;21242;-83
2022/05/30 01:45:06;;;;;;;2.40;1.87;;;;;;;20.18;52.84;98224.77;2292210;77;20953;-83
2022/05/30 01:48:08;;;;;;;3.85;2.42;;;;;;;20.95;52.15;98225.42;2292103;77;21016;-84
2022/05/30 01:51:07;;;;;;;3.47;2.40;;;;;;;21.41;50.14;98219.14;2292396;77;20941;-84
2022/05/30 01:54:08;;;;;;;5.42;2.30;;;;;;;21.41;50.55;98219.61;2292965;77;21607;-84
2022/05/30 01:57:08;;;;;;;8.78;2.52;;;;;;;20.71;48.36;98220.59;2292072;77;21024;-84
2022/05/30 02:00:15;;;;;;;3.58;1.98;;;;;;;20.49;48.68;98215.25;2291911;77;21016;-83
2022/05/30 02:03:16;;;;;;;5.30;2.27;;;;;;;19.17;47.84;98213.23;2291579;77;20945;-83
2022/05/30 02:06:16;;;;;;;3.58;2.33;;;;;;;16.89;51.14;98213.33;2291616;77;21302;-82
2022/05/30 02:09:17;;;;;;;3.98;2.33;;;;;;;15.22;54.67;98206.48;2291510;77;20960;-82
2022/05/30 02:12:17;;;;;;;4.30;2.33;;;;;;;14.08;57.81;98217.73;2291496;77;20978;-82
2022/05/30 02:15:17;;;;;;;4.28;2.40;;;;;;;13.15;61.06;98211.63;2291791;77;20898;-83
2022/05/30 02:18:18;;;;;;;4.35;2.42;;;;;;;12.60;65.76;98209.83;2292144;78;20934;-81
2022/05/30 02:21:18;;;;;;;3.55;2.60;;;;;;;13.37;64.05;98202.72;2290852;77;21074;-81
2022/05/30 02:24:19;;;;;;;5.78;2.45;;;;;;;13.32;67.16;98204.95;2292136;77;20961;-83
2022/05/30 02:27:19;;;;;;;3.30;2.30;;;;;;;13.33;69.34;98198.39;2288411;77;21017;-82
2022/05/30 02:30:19;;;;;;;2.52;2.10;;;;;;;14.80;67.75;98196.22;2290046;77;20918;-83
2022/05/30 02:36:41;;;;;;;4.35;2.30;;;;;;;17.65;62.61;98195.61;2290322;78;20954;-83
2022/05/30 02:39:41;;;;;;;3.98;2.10;;;;;;;18.87;58.86;98186.83;2290592;77;20954;-84
2022/05/30 02:42:44;;;;;;;3.37;2.12;;;;;;;19.47;56.47;98172.52;2290789;77;20946;-84
2022/05/30 02:45:46;;;;;;;4.85;1.95;;;;;;;19.01;52.91;98172.70;2292012;77;20997;-84
2022/05/30 02:48:46;;;;;;;3.35;1.95;;;;;;;18.86;55.57;98184.23;2259124;78;20958;-83
2022/05/30 02:51:47;;;;;;;3.12;2.08;;;;;;;19.22;56.10;98180.88;2292183;77;21294;-84
2022/05/30 02:54:47;;;;;;;3.90;2.30;;;;;;;19.57;54.72;98178.39;2292671;78;20953;-83
2022/05/30 02:57:50;;;;;;;5.08;2.12;;;;;;;20.37;52.30;98177.24;2260321;78;21002;-84
2022/05/30 03:00:51;;;;;;;2.50;1.80;;;;;;;20.37;52.30;98177.24;2292482;77;20948;-82
2022/05/30 03:03:51;;;;;;;5.72;1.98;;;;;;;19.39;52.65;98179.85;2292252;78;20930;-83
2022/05/30 03:06:52;;;;;;;5.33;2.20;;;;;;;19.69;53.01;98185.44;2292945;77;20929;-83
2022/05/30 03:09:52;;;;;;;3.60;1.95;;;;;;;19.90;52.72;98186.92;2292624;77;20977;-83
2022/05/30 03:12:52;;;;;;;6.20;3.05;;;;;;;20.21;52.04;98184.91;2292433;77;20946;-83
2022/05/30 03:15:53;;;;;;;4.28;2.72;;;;;;;20.46;50.90;98191.97;2292871;77;21377;-83
2022/05/30 03:18:54;;;;;;;5.50;2.83;;;;;;;20.31;49.98;98187.61;2292393;77;20902;-83
2022/05/30 03:21:57;;;;;;;4.28;2.77;;;;;;;19.89;47.70;98188.70;2291632;77;21987;-83
2022/05/30 03:24:57;;;;;;;3.72;2.47;;;;;;;17.47;49.17;98192.14;2291021;77;20982;-84
2022/05/30 03:27:58;;;;;;;4.28;2.52;;;;;;;15.48;52.57;98195.96;2293928;77;21012;-83
2022/05/30 03:30:58;;;;;;;4.37;2.42;;;;;;;14.14;55.71;98203.22;2305777;77;21392;-84
2022/05/30 03:33:59;;;;;;;3.67;2.60;;;;;;;13.16;59.27;98200.27;2306563;77;20953;-83
2022/05/30 03:36:59;;;;;;;4.05;2.75;;;;;;;12.41;62.34;98206.01;2306383;77;20894;-82
2022/05/30 03:40:00;;;;;;;3.50;2.33;;;;;;;11.92;63.54;98205.78;2305476;77;20925;-82
2022/05/30 03:43:02;;;;;;;3.33;2.55;;;;;;;11.57;64.70;98217.17;2301891;77;20977;-83
2022/05/30 03:46:02;;;;;;;4.62;3.83;;;;;;;11.37;66.33;98217.64;2303635;77;21414;-83
2022/05/30 03:49:03;;;;;;;3.65;2.80;;;;;;;11.11;66.84;98221.55;2304430;77;21016;-86
2022/05/30 03:52:04;;;;;;;5.60;2.80;;;;;;;10.97;68.02;98214.16;2303308;77;21048;-83
2022/05/30 03:55:05;;;;;;;4.90;2.90;;;;;;;10.83;69.22;98218.06;2304024;77;20984;-84
2022/05/30 03:58:07;;;;;;;3.50;2.67;;;;;;;10.67;69.79;98217.17;2303597;77;21412;-82
2022/05/30 04:01:07;;;;;;;6.20;3.00;;;;;;;10.59;70.78;98220.64;2303819;77;20972;-81
2022/05/30 04:04:08;;;;;;;5.63;3.20;;;;;;;10.52;71.25;98217.16;2304508;77;20952;-82
2022/05/30 04:07:08;;;;;;;4.43;2.83;;;;;;;11.57;76.40;98219.79;2304047;77;21398;-82
2022/05/30 04:10:09;;;;;;;4.35;2.55;;;;;;;13.85;71.88;98212.27;2305254;77;20940;-83
2022/05/30 04:13:09;;;;;;;8.85;2.50;;;;;;;15.43;67.47;98203.06;2305556;77;20937;-81
2022/05/30 04:16:09;;;;;;;3.55;2.72;;;;;;;16.67;64.09;98205.05;2304369;77;21366;-81
2022/05/30 04:19:10;;;;;;;4.33;2.15;;;;;;;17.59;60.79;98203.69;2303166;77;21007;-82
2022/05/30 04:22:10;;;;;;;3.22;2.10;;;;;;;16.99;56.71;98205.62;2303670;77;20918;-82
2022/05/30 04:25:10;;;;;;;7.30;2.70;;;;;;;15.48;57.41;98201.22;2304529;77;21305;-81
2022/05/30 04:28:11;;;;;;;3.52;2.22;;;;;;;14.14;60.93;98211.09;2299740;77;21008;-81
2022/05/30 04:31:11;;;;;;;4.35;2.70;;;;;;;15.38;64.57;98199.65;2289771;77;20953;-82
2022/05/30 04:34:12;;;;;;;4.47;2.45;;;;;;;17.05;61.32;98197.56;2289457;77;20953;-81
2022/05/30 04:37:12;;;;;;;3.75;2.35;;;;;;;17.80;59.10;98203.15;2289226;78;21005;-81
2022/05/30 04:40:13;;;;;;;5.95;3.52;;;;;;;18.74;57.10;98202.67;2289686;77;21317;-81
2022/05/30 04:43:13;;;;;;;5.17;3.30;;;;;;;19.31;54.27;98205.70;2289523;77;20957;-82
2022/05/30 04:46:13;;;;;;;6.40;5.10;;;;;;;19.87;53.15;98195.84;2289946;77;20995;-83
2022/05/30 04:49:14;;;;;;;8.20;6.55;;;;;;;19.75;50.63;98203.35;2291001;77;20981;-83
2022/05/30 04:52:14;;;;;;;8.33;7.20;;;;;;;18.33;52.17;98207.40;2290438;77;20993;-82
2022/05/30 04:55:19;;;;;;;13.13;9.25;;;;;;;17.54;53.67;98213.95;2288004;77;21443;-79
2022/05/30 04:58:17;;;;;;;13.90;7.10;;;;;;;16.39;55.14;98203.86;2253343;78;21048;-82
2022/05/30 05:01:17;;;;;;;22.30;11.45;;;;;;;15.24;55.75;98207.78;2287919;77;20953;-82
2022/05/30 05:04:18;;;;;;;8.05;4.78;;;;;;;14.12;57.94;98218.11;2288737;78;20922;-77
2022/05/30 05:07:18;;;;;;;3.27;2.92;;;;;;;13.19;60.98;98213.38;2288409;77;21345;-82
2022/05/30 05:10:18;;;;;;;5.60;2.98;;;;;;;12.51;63.27;98216.42;2288760;77;21013;-85
2022/05/30 05:13:19;;;;;;;2.95;2.62;;;;;;;12.05;65.34;98216.63;2288354;77;21435;-81
2022/05/30 05:16:19;;;;;;;2.70;2.42;;;;;;;11.74;67.58;98219.75;2288338;77;21013;-82
2022/05/30 05:19:20;;;;;;;5.37;2.80;;;;;;;11.40;68.49;98216.34;2288090;77;20972;-82
2022/05/30 05:22:20;;;;;;;6.55;2.80;;;;;;;11.14;69.59;98208.49;2288406;77;20988;-82
2022/05/30 05:25:20;;;;;;;6.53;3.52;;;;;;;11.05;71.02;98211.11;2287137;78;20956;-82
2022/05/30 05:28:21;;;;;;;4.87;2.90;;;;;;;10.95;71.47;98215.89;2290572;77;21459;-82
2022/05/30 05:31:22;;;;;;;3.25;2.92;;;;;;;10.84;72.62;98211.54;2302599;77;21107;-82
2022/05/30 05:34:22;;;;;;;7.10;4.30;;;;;;;10.81;72.54;98214.15;2301913;77;21023;-81
2022/05/30 05:37:23;;;;;;;3.73;3.10;;;;;;;10.80;73.15;98208.48;2301863;77;21312;-81
2022/05/30 05:40:24;;;;;;;6.93;3.30;;;;;;;10.81;73.13;98210.23;2301546;77;20960;-80
2022/05/30 05:43:23;;;;;;;5.37;3.77;;;;;;;10.79;74.03;98208.05;2302179;77;20984;-82
2022/05/30 05:46:24;;;;;;;6.57;3.17;;;;;;;10.74;74.59;98209.80;2302351;77;20999;-81
2022/05/30 05:49:24;;;;;;;5.33;3.90;;;;;;;10.70;74.82;98205.44;2302393;77;20965;-82
2022/05/30 05:52:28;;;;;;;6.20;4.00;;;;;;;10.78;76.17;98208.92;2302236;77;20996;-82
2022/05/30 05:55:25;;;;;;;4.10;3.70;;;;;;;10.82;74.76;98216.33;2303035;77;21052;-81
2022/05/30 05:58:25;;;;;;;5.23;3.40;;;;;;;10.94;74.84;98211.55;2302543;77;21416;-82
2022/05/30 06:01:26;;;;;;;3.93;3.50;;;;;;;11.06;75.45;98218.08;2302420;77;21376;-81
2022/05/30 06:04:26;;;;;;;5.47;3.53;;;;;;;11.19;74.99;98219.81;2304364;77;20921;-84
2022/05/30 06:07:27;;;;;;;4.03;3.63;;;;;;;11.34;74.89;98217.22;2304709;77;20948;-83
2022/05/30 06:10:27;;;;;;;8.45;5.25;;;;;;;11.49;75.55;98218.50;2302627;77;21423;-83
2022/05/30 06:13:27;;;;;;;6.03;4.87;;;;;;;11.49;74.69;98226.34;2302378;77;20972;-82
2022/05/30 06:16:28;;;;;;;4.42;3.98;;;;;;;11.66;75.56;98233.28;2303474;77;21044;-81
2022/05/30 06:19:28;;;;;;;5.92;3.33;;;;;;;11.80;74.82;98225.86;2303009;77;20949;-81
2022/05/30 06:22:28;;;;;;;7.12;4.22;;;;;;;12.01;74.10;98221.00;2302838;77;21005;-81
2022/05/30 06:25:29;;;;;;;4.17;3.75;;;;;;;12.29;73.42;98222.22;2303680;77;21309;-81
2022/05/30 06:28:29;;;;;;;4.83;3.10;;;;;;;12.47;73.61;98220.81;2302026;77;21052;-82
2022/05/30 06:31:30;;;;;;;3.12;2.83;;;;;;;12.76;72.07;98218.88;2288649;77;20982;-81
2022/05/30 06:34:31;;;;;;;3.35;3.05;;;;;;;13.06;71.06;98224.36;2288673;78;21362;-82
2022/05/30 06:37:31;;;;;;;6.23;5.63;;;;;;;13.43;70.91;98225.83;2291268;77;20989;-80
2022/05/30 06:40:31;;;;;;;2.95;2.65;;;;;;;13.56;68.74;98239.25;2290155;77;21036;-80
2022/05/30 06:43:31;;;;;;;8.88;3.10;;;;;;;13.76;68.75;98233.36;2288660;77;21274;-82
2022/05/30 06:46:33;;;;;;;18.25;2.80;;;;;;;13.96;68.86;98226.61;2290521;77;20930;-82
2022/05/30 06:49:34;;;;;;;6.60;2.70;;;;;;;13.89;67.76;98219.25;2290396;77;21032;-81
2022/05/30 06:52:34;;;;;;;46.28;3.10;;;;;;;13.75;68.16;98221.12;2288856;78;21193;-82
2022/05/30 06:55:37;;;;;;;3.02;2.40;;;;;;;13.73;68.54;98228.14;2288193;77;20938;-82
2022/05/30 06:58:37;;;;;;;2.52;2.27;;;;;;;13.62;68.72;98230.01;2289140;77;20985;-81
2022/05/30 07:01:39;;;;;;;3.40;2.40;;;;;;;13.54;68.82;98234.46;2289266;77;21528;-83
2022/05/30 07:04:38;;;;;;;3.62;2.67;;;;;;;13.48;68.43;98233.20;2289692;77;20989;-81
2022/05/30 07:07:38;;;;;;;4.67;2.50;;;;;;;13.39;68.13;98236.34;2289614;77;21507;-82
2022/05/30 07:10:39;;;;;;;3.55;2.40;;;;;;;13.42;68.27;98231.95;2291818;77;21008;-81
2022/05/30 07:13:39;;;;;;;4.60;2.80;;;;;;;13.45;68.19;98243.72;2292098;77;20950;-82
2022/05/30 07:16:39;;;;;;;9.50;2.60;;;;;;;13.39;68.55;98248.14;2291697;77;20976;-82
2022/05/30 07:19:40;;;;;;;5.00;2.75;;;;;;;13.28;68.61;98249.98;2291256;77;21147;-82
2022/05/30 07:22:40;;;;;;;3.10;2.67;;;;;;;13.21;69.56;98248.73;2289727;77;21036;-81
2022/05/30 07:25:41;;;;;;;2.77;2.55;;;;;;;13.11;69.05;98253.15;2290333;77;21009;-81
2022/05/30 07:28:41;;;;;;;2.92;2.42;;;;;;;13.00;69.37;98253.23;2289868;77;21013;-82
2022/05/30 07:31:41;;;;;;;2.67;2.47;;;;;;;12.98;69.34;98262.81;2291271;77;20922;-82
2022/05/30 07:34:42;;;;;;;2.65;2.02;;;;;;;13.08;69.46;98266.27;2289809;77;20948;-80
2022/05/30 07:37:43;;;;;;;2.70;2.50;;;;;;;13.28;69.05;98264.40;2288923;77;20933;-81
2022/05/30 07:40:46;;;;;;;4.50;2.27;;;;;;;13.44;69.02;98271.69;2291065;77;21321;-82
2022/05/30 07:43:46;;;;;;;3.12;2.30;;;;;;;13.56;68.34;98278.14;2291686;78;20937;-82
2022/05/30 07:46:46;;;;;;;3.67;2.60;;;;;;;13.56;68.14;98273.33;2292543;77;20989;-82
2022/05/30 07:49:47;;;;;;;37.70;28.85;;;;;;;13.56;68.28;98274.64;2290430;77;21004;-81
2022/05/30 07:52:47;;;;;;;4.03;3.62;;;;;;;13.51;68.97;98272.06;2290228;78;21045;-82
2022/05/30 07:55:50;;;;;;;4.25;3.70;;;;;;;13.76;68.64;98278.39;2290400;77;20996;-81
2022/05/30 07:58:51;;;;;;;2.87;2.52;;;;;;;13.89;67.79;98277.41;2290476;77;21946;-84
2022/05/30 08:01:51;;;;;;;18.85;2.75;;;;;;;14.05;66.80;98279.43;2289808;77;20938;-81
2022/05/30 08:04:51;;;;;;;11.75;3.85;;;;;;;14.11;66.13;98285.48;2289414;77;20972;-85
2022/05/30 08:07:52;;;;;;;6.33;3.47;;;;;;;14.10;66.35;98290.75;2289439;77;20977;-84
2022/05/30 08:10:52;;;;;;;2.67;2.47;;;;;;;14.29;66.32;98285.71;2290078;78;20937;-84
2022/05/30 08:13:53;;;;;;;2.65;2.30;;;;;;;14.54;66.23;98289.80;2289635;78;21045;-83
2022/05/30 08:16:54;;;;;;;6.42;2.30;;;;;;;14.73;64.59;98295.69;2288875;78;21005;-83
2022/05/30 08:19:54;;;;;;;2.75;1.80;;;;;;;14.71;62.91;98297.91;2290697;77;20906;-83
2022/05/30 08:22:55;;;;;;;2.60;2.02;;;;;;;14.68;63.20;98296.19;2289321;78;21000;-81
2022/05/30 08:25:55;;;;;;;3.42;2.30;;;;;;;14.73;62.55;98301.38;2288680;77;20965;-82
2022/05/30 08:28:55;;;;;;;3.15;1.80;;;;;;;14.78;63.16;98300.91;2282455;77;21094;-81
2022/05/30 08:31:56;;;;;;;2.30;2.20;;;;;;;14.84;61.94;98302.14;2227456;80;20986;-83
2022/05/30 08:34:58;;;;;;;5.72;2.40;;;;;;;14.91;62.01;98303.80;2227190;80;21030;-82
2022/05/30 08:38:00;;;;;;;4.42;2.72;;;;;;;14.87;62.35;98306.91;2227059;80;21039;-83
2022/05/30 08:44:19;;;;;;;4.40;3.52;;;;;;;14.40;64.18;98311.39;2228270;80;21255;-83
2022/05/30 08:47:19;;;;;;;7.35;3.72;;;;;;;14.27;65.23;98322.48;2228111;80;20979;-84
2022/05/30 08:50:22;;;;;;;6.40;2.95;;;;;;;14.15;65.59;98323.93;2228247;80;21428;-83
2022/05/30 08:53:20;;;;;;;3.72;2.95;;;;;;;14.00;65.58;98324.95;2228174;80;21316;-84
2022/05/30 08:56:21;;;;;;;3.65;2.67;;;;;;;13.79;65.69;98330.38;2228372;80;20982;-82
2022/05/30 08:59:21;;;;;;;6.12;3.25;;;;;;;13.66;66.52;98330.06;2228167;80;21878;-82
2022/05/30 09:02:21;;;;;;;4.42;3.60;;;;;;;13.41;67.29;98332.02;2227193;80;20979;-82
2022/05/30 09:05:22;;;;;;;7.33;4.47;;;;;;;13.28;68.27;98334.30;2226706;80;20975;-83
2022/05/30 09:08:22;;;;;;;7.58;4.50;;;;;;;13.19;69.64;98335.23;2227183;80;21445;-83
2022/05/30 09:11:23;;;;;;;8.15;4.72;;;;;;;13.11;69.58;98335.69;2226963;80;20947;-82
2022/05/30 09:14:23;;;;;;;7.30;5.20;;;;;;;13.11;70.51;98342.67;2226095;80;20993;-81
2022/05/30 09:17:23;;;;;;;9.10;8.20;;;;;;;13.14;70.71;98347.45;2227117;80;20983;-82
2022/05/30 09:20:24;;;;;;;7.28;4.28;;;;;;;13.20;71.54;98347.45;2226884;80;20959;-81
2022/05/30 09:23:24;;;;;;;7.12;5.45;;;;;;;13.27;71.14;98359.64;2227165;80;21026;-82
2022/05/30 09:26:25;;;;;;;8.63;7.90;;;;;;;13.23;71.28;98350.50;2227284;80;21010;-81
2022/05/30 09:29:27;;;;;;;7.08;6.35;;;;;;;13.35;72.29;98356.97;2236549;78;21038;-81
2022/05/30 09:32:25;;;;;;;5.75;4.05;;;;;;;13.51;71.31;98363.84;2278636;78;20973;-81
2022/05/30 09:35:26;;;;;;;5.10;4.25;;;;;;;13.72;71.27;98361.48;2278252;77;20973;-81
2022/05/30 09:38:26;;;;;;;7.08;3.70;;;;;;;14.01;71.13;98364.75;2278005;77;21228;-81
2022/05/30 09:41:27;;;;;;;3.98;3.40;;;;;;;14.32;69.33;98368.38;2278010;78;20981;-82
2022/05/30 09:44:27;;;;;;;7.35;3.70;;;;;;;14.47;68.55;98366.92;2277331;77;21074;-80
2022/05/30 09:47:27;;;;;;;7.08;3.85;;;;;;;14.45;67.67;98373.95;2278181;78;21145;-77
2022/05/30 09:50:28;;;;;;;10.20;3.65;;;;;;;14.45;67.67;98373.95;2278168;78;21011;-82
2022/05/30 09:53:28;;;;;;;9.63;3.95;;;;;;;14.21;67.49;98375.05;2278466;78;21017;-81
2022/05/30 09:56:29;;;;;;;6.12;4.00;;;;;;;13.94;68.31;98381.88;2280039;78;20979;-82
2022/05/30 09:59:29;;;;;;;6.33;3.52;;;;;;;13.70;68.97;98388.16;2278110;77;20933;-82
2022/05/30 10:02:29;;;;;;;3.98;3.62;;;;;;;13.46;70.45;98392.28;2278435;78;20961;-83
2022/05/30 10:05:30;;;;;;;6.78;4.75;;;;;;;13.36;71.88;98395.41;2278466;77;21029;-81
2022/05/30 10:08:32;;;;;;;4.62;4.05;;;;;;;13.48;71.82;98397.07;2276676;78;21021;-80
2022/05/30 10:11:33;;;;;;;6.80;4.47;;;;;;;13.61;71.41;98398.73;2278581;78;20977;-80
2022/05/30 10:14:34;;;;;;;5.65;4.75;;;;;;;13.64;71.88;98396.95;2278527;78;21430;-82
2022/05/30 10:17:33;;;;;;;5.22;3.50;;;;;;;13.71;72.04;98399.95;2278525;77;21936;-80
2022/05/30 10:20:36;;;;;;;5.90;4.37;;;;;;;13.65;71.61;98400.44;2278880;78;20950;-79
2022/05/30 10:30:12;;;;;;;15.75;5.92;;;;;;;12.39;73.55;98417.59;2279457;78;20985;-80
2022/05/30 10:33:12;;;;;;;17.45;6.35;;;;;;;12.02;75.26;98428.08;2280556;78;21447;-80
2022/05/30 10:36:13;;;;;;;9.65;5.60;;;;;;;11.82;76.06;98425.03;2280613;78;21041;-81
2022/05/30 10:39:13;;;;;;;5.80;5.20;;;;;;;11.71;76.17;98440.68;2280360;77;21373;-81
2022/05/30 10:42:14;;;;;;;7.65;5.42;;;;;;;11.66;77.44;98447.65;2281690;77;21421;-80
2022/05/30 10:45:14;;;;;;;11.73;6.83;;;;;;;11.74;77.22;98437.63;2282654;77;21323;-80
2022/05/30 10:48:14;;;;;;;7.10;5.33;;;;;;;11.94;77.55;98437.67;2282799;78;20997;-80
2022/05/30 10:51:15;;;;;;;7.33;5.08;;;;;;;12.32;77.13;98445.95;2282632;77;20914;-82
2022/05/30 10:54:15;;;;;;;8.60;4.50;;;;;;;12.72;75.55;98443.68;2281578;78;21397;-81
2022/05/30 10:57:16;;;;;;;6.37;4.70;;;;;;;12.80;74.84;98447.58;2281588;78;20958;-81
2022/05/30 11:00:16;;;;;;;4.78;4.05;;;;;;;12.55;74.89;98449.41;2281491;77;21364;-81
2022/05/30 11:03:17;;;;;;;7.53;4.78;;;;;;;12.29;75.47;98450.77;2281183;78;20982;-80
2022/05/30 11:06:17;;;;;;;5.60;3.72;;;;;;;12.58;75.26;98457.25;2282057;78;20922;-80
2022/05/30 11:09:17;;;;;;;3.60;3.20;;;;;;;13.09;74.18;98454.05;2283137;78;21372;-81
2022/05/30 11:12:18;;;;;;;6.37;2.92;;;;;;;13.33;71.79;98454.41;2282752;78;20930;-82
2022/05/30 11:15:18;;;;;;;3.70;3.37;;;;;;;13.63;71.66;98449.41;2283220;77;20937;-81
2022/05/30 11:18:19;;;;;;;3.62;3.10;;;;;;;13.95;69.37;98452.70;2282221;78;20950;-81
2022/05/30 11:21:20;;;;;;;5.47;3.40;;;;;;;14.12;68.46;98452.56;2281608;77;21416;-80
2022/05/30 11:24:20;;;;;;;5.08;3.70;;;;;;;14.38;66.67;98447.08;2281563;78;21067;-81
2022/05/30 11:27:20;;;;;;;5.53;3.33;;;;;;;14.70;68.09;98451.16;2282211;78;20949;-81
2022/05/30 11:30:20;;;;;;;5.62;3.30;;;;;;;15.22;66.54;98448.81;2263669;78;20992;-81
2022/05/30 11:33:21;;;;;;;6.15;3.33;;;;;;;15.08;64.01;98460.81;2225792;80;21030;-80
2022/05/30 11:36:21;;;;;;;5.67;3.27;;;;;;;14.98;64.10;98453.94;2225567;80;20991;-81
2022/05/30 11:39:22;;;;;;;6.62;3.47;;;;;;;15.03;64.07;98458.69;2225863;80;20963;-82
2022/05/30 11:42:22;;;;;;;3.77;2.98;;;;;;;15.10;63.94;98452.47;2225601;80;20969;-82
2022/05/30 11:45:23;;;;;;;6.90;2.70;;;;;;;15.17;63.78;98456.76;2226556;80;21420;-82
2022/05/30 11:48:23;;;;;;;5.67;2.70;;;;;;;14.97;63.14;98460.08;2227414;80;20967;-82
2022/05/30 11:51:23;;;;;;;3.58;2.50;;;;;;;14.88;63.61;98462.81;2227622;80;20974;-80
2022/05/30 11:54:24;;;;;;;4.25;2.62;;;;;;;15.14;63.39;98455.48;2227019;80;21006;-81
2022/05/30 11:57:24;;;;;;;7.22;3.40;;;;;;;15.01;63.27;98465.72;2225793;80;21406;-81
2022/05/30 12:00:25;;;;;;;3.10;2.75;;;;;;;14.90;63.07;98458.41;2225531;80;21064;-81
2022/05/30 12:03:25;;;;;;;5.15;2.80;;;;;;;15.08;61.91;98448.98;2225686;80;20967;-80
2022/05/30 12:06:26;;;;;;;7.58;3.17;;;;;;;15.33;62.23;98452.61;2225725;80;20939;-79
2022/05/30 12:09:26;;;;;;;8.68;3.12;;;;;;;15.36;61.41;98457.39;2225813;80;20986;-79
2022/05/30 12:12:27;;;;;;;4.35;2.85;;;;;;;15.65;61.63;98454.41;2224809;80;20996;-79
2022/05/30 12:15:27;;;;;;;8.05;3.08;;;;;;;15.82;59.06;98455.03;2226666;80;20979;-80
2022/05/30 12:25:05;;;;;;;4.45;3.30;;;;;;;15.90;59.73;98454.91;2225020;80;20967;-80
2022/05/30 12:28:06;;;;;;;3.77;2.77;;;;;;;16.15;58.73;98447.48;2225255;80;21241;-80
2022/05/30 12:31:06;;;;;;;6.22;3.00;;;;;;;16.33;59.02;98455.07;2225062;78;21688;-80
2022/05/30 12:34:06;;;;;;;4.87;3.50;;;;;;;16.92;57.69;98456.23;2224325;80;21015;-79
2022/05/30 12:37:06;;;;;;;3.95;2.92;;;;;;;17.25;57.04;98446.77;2224345;80;20959;-79
2022/05/30 12:40:07;;;;;;;2.75;2.55;;;;;;;17.71;56.57;98444.91;2224729;80;21402;-79
2022/05/30 12:43:08;;;;;;;4.90;2.92;;;;;;;17.61;55.12;98446.45;2225855;80;20944;-79
2022/05/30 12:46:08;;;;;;;5.35;2.67;;;;;;;17.37;54.40;98450.50;2225041;80;20991;-80
2022/05/30 12:49:08;;;;;;;3.72;2.60;;;;;;;17.14;54.70;98453.59;2226136;80;21095;-78
2022/05/30 12:52:08;;;;;;;49.83;3.52;;;;;;;16.88;55.42;98454.98;2224515;80;21046;-80
2022/05/30 12:55:09;;;;;;;6.30;2.62;;;;;;;16.62;55.25;98477.42;2227111;80;21365;-78
2022/05/30 12:58:09;;;;;;;5.45;2.70;;;;;;;16.50;55.77;98462.26;2225417;80;21042;-79
2022/05/30 13:01:10;;;;;;;4.08;3.42;;;;;;;16.82;56.86;98451.15;2224488;80;21388;-80
2022/05/30 13:04:10;;;;;;;16.48;8.58;;;;;;;17.16;56.55;98447.83;2223733;80;21588;-80
2022/05/30 13:07:10;;;;;;;7.05;3.35;;;;;;;17.31;55.13;98457.19;2223620;80;21007;-81
2022/05/30 13:10:11;;;;;;;3.65;2.92;;;;;;;17.03;54.66;98449.85;2225894;80;21647;-79
2022/05/30 13:13:13;;;;;;;3.47;2.70;;;;;;;17.25;54.75;98458.64;2226092;80;21027;-79
2022/05/30 13:16:12;;;;;;;8.68;4.67;;;;;;;16.64;53.31;98467.28;2223984;80;20958;-80
2022/05/30 13:19:12;;;;;;;6.30;3.98;;;;;;;16.47;55.56;98466.27;2225373;80;21038;-79
2022/05/30 13:22:15;;;;;;;3.60;2.98;;;;;;;16.48;54.42;98465.81;2225658;80;20991;-79
2022/05/30 13:25:16;;;;;;;3.70;3.23;;;;;;;16.65;54.33;98461.14;2226256;80;20943;-80
2022/05/30 13:28:16;;;;;;;5.35;2.80;;;;;;;17.10;53.39;98451.91;2225444;80;20971;-80
2022/05/30 13:31:17;;;;;;;5.25;2.40;;;;;;;17.22;53.75;98459.57;2226724;78;21403;-80
2022/05/30 13:34:17;;;;;;;3.52;2.60;;;;;;;17.33;52.62;98460.22;2226609;80;21012;-80
2022/05/30 13:37:17;;;;;;;2.65;2.40;;;;;;;17.54;53.76;98458.91;2227168;80;21006;-79
2022/05/30 13:40:18;;;;;;;2.58;2.37;;;;;;;17.39;52.28;98461.88;2228321;80;21419;-80
2022/05/30 13:43:18;;;;;;;3.80;2.25;;;;;;;17.39;53.31;98463.20;2229028;80;20928;-81
2022/05/30 13:46:18;;;;;;;3.02;2.65;;;;;;;17.47;52.21;98455.98;2227465;80;21469;-80
2022/05/30 13:49:19;;;;;;;4.03;2.50;;;;;;;17.85;51.85;98463.52;2227317;80;21390;-80
2022/05/30 13:52:19;;;;;;;3.25;2.70;;;;;;;18.17;50.49;98465.39;2229122;80;20955;-79
2022/05/30 13:55:22;;;;;;;3.80;2.02;;;;;;;18.06;49.78;98465.66;2229412;80;20972;-81
2022/05/30 13:58:22;;;;;;;7.03;2.50;;;;;;;17.77;50.11;98461.93;2229305;80;21017;-81
2022/05/30 14:01:22;;;;;;;5.20;2.40;;;;;;;17.59;50.13;98462.77;2228484;80;20974;-79
2022/05/30 14:04:26;;;;;;;3.73;2.30;;;;;;;17.46;50.57;98460.85;2228192;80;21426;-81
2022/05/30 14:07:26;;;;;;;3.47;2.72;;;;;;;17.69;49.93;98462.56;2227598;80;20956;-79
2022/05/30 14:10:27;;;;;;;4.17;2.42;;;;;;;18.25;50.24;98468.29;2228833;80;21058;-79
2022/05/30 14:13:27;;;;;;;3.50;2.27;;;;;;;18.06;50.06;98463.88;2228593;80;21307;-80
2022/05/30 14:16:27;;;;;;;2.50;2.30;;;;;;;17.80;50.28;98467.14;2227082;80;20988;-80
2022/05/30 14:19:29;;;;;;;3.77;2.50;;;;;;;17.71;50.06;98466.03;2226348;80;20992;-80
2022/05/30 14:22:28;;;;;;;5.37;3.15;;;;;;;17.72;50.69;98471.73;2227901;80;20916;-80
2022/05/30 14:25:28;;;;;;;2.58;2.20;;;;;;;17.65;50.60;98474.05;2228263;80;20991;-80
2022/05/30 14:28:29;;;;;;;5.05;2.62;;;;;;;17.49;50.26;98477.48;2228588;80;21367;-79
2022/05/30 14:31:29;;;;;;;3.25;2.20;;;;;;;17.80;50.47;98472.42;2251225;78;21034;-79
2022/05/30 14:34:30;;;;;;;3.60;2.22;;;;;;;18.18;49.96;98471.95;2280955;77;20974;-80